sensor_id;sensor_type;location;lat;lon;timestamp;pressure;altitude;pressure_sealevel;temperature;humidity
43115;BME280;28727;50.068;14.452;2023-02-12T00:00:48;100963.75;;;6.30;69.78
43115;BME280;28727;50.068;14.452;2023-02-12T00:03:20;100967.31;;;6.29;69.80
43115;BME280;28727;50.068;14.452;2023-02-12T00:05:52;100971.63;;;6.30;69.90
43115;BME280;28727;50.068;14.452;2023-02-12T00:08:24;100968.88;;;6.31;69.91
43115;BME280;28727;50.068;14.452;2023-02-12T00:10:56;100963.75;;;6.30;69.58
43115;BME280;28727;50.068;14.452;2023-02-12T00:13:29;100958.53;;;6.30;69.42
43115;BME280;28727;50.068;14.452;2023-02-12T00:16:07;100965.53;;;6.29;69.75
43115;BME280;28727;50.068;14.452;2023-02-12T00:18:39;100948.03;;;6.30;69.52
43115;BME280;28727;50.068;14.452;2023-02-12T00:21:12;100948.03;;;6.30;69.33
43115;BME280;28727;50.068;14.452;2023-02-12T00:23:44;100955.25;;;6.26;69.11
43115;BME280;28727;50.068;14.452;2023-02-12T00:26:18;100948.53;;;6.22;70.25
43115;BME280;28727;50.068;14.452;2023-02-12T00:28:53;100951.06;;;6.24;70.00
43115;BME280;28727;50.068;14.452;2023-02-12T00:31:27;100948.63;;;6.21;70.05
43115;BME280;28727;50.068;14.452;2023-02-12T00:34:00;100947.06;;;6.18;70.02
43115;BME280;28727;50.068;14.452;2023-02-12T00:36:31;100959.19;;;6.19;70.33
43115;BME280;28727;50.068;14.452;2023-02-12T00:39:03;100960.88;;;6.20;70.11
43115;BME280;28727;50.068;14.452;2023-02-12T00:41:35;100952.50;;;6.15;70.21
43115;BME280;28727;50.068;14.452;2023-02-12T00:44:07;100965.06;;;6.10;70.15
43115;BME280;28727;50.068;14.452;2023-02-12T00:46:39;100959.47;;;6.02;70.28
43115;BME280;28727;50.068;14.452;2023-02-12T00:49:11;100970.09;;;6.00;70.61
43115;BME280;28727;50.068;14.452;2023-02-12T00:51:44;100968.28;;;6.01;70.67
43115;BME280;28727;50.068;14.452;2023-02-12T00:54:19;100965.78;;;5.99;70.65
43115;BME280;28727;50.068;14.452;2023-02-12T00:56:51;100970.91;;;6.01;70.75
43115;BME280;28727;50.068;14.452;2023-02-12T00:59:24;100965.66;;;6.01;71.10
43115;BME280;28727;50.068;14.452;2023-02-12T01:01:56;100977.66;;;6.05;71.25
43115;BME280;28727;50.068;14.452;2023-02-12T01:04:28;100976.41;;;6.10;71.22
43115;BME280;28727;50.068;14.452;2023-02-12T01:07:00;100974.53;;;6.12;70.66
43115;BME280;28727;50.068;14.452;2023-02-12T01:09:31;100968.97;;;6.17;70.32
43115;BME280;28727;50.068;14.452;2023-02-12T01:12:04;100968.97;;;6.17;70.24
43115;BME280;28727;50.068;14.452;2023-02-12T01:14:39;100981.16;;;6.18;70.53
43115;BME280;28727;50.068;14.452;2023-02-12T01:17:11;100976.63;;;6.20;70.44
43115;BME280;28727;50.068;14.452;2023-02-12T01:19:43;100980.94;;;6.21;70.55
43115;BME280;28727;50.068;14.452;2023-02-12T01:22:15;100990.41;;;6.24;70.64
43115;BME280;28727;50.068;14.452;2023-02-12T01:24:47;100984.09;;;6.26;70.75
43115;BME280;28727;50.068;14.452;2023-02-12T01:27:20;100982.13;;;6.30;70.89
43115;BME280;28727;50.068;14.452;2023-02-12T01:29:51;100986.97;;;6.36;70.85
43115;BME280;28727;50.068;14.452;2023-02-12T01:32:25;100993.69;;;6.40;70.57
43115;BME280;28727;50.068;14.452;2023-02-12T01:34:57;100989.19;;;6.42;70.69
43115;BME280;28727;50.068;14.452;2023-02-12T01:37:28;100982.88;;;6.44;70.49
43115;BME280;28727;50.068;14.452;2023-02-12T01:40:00;100982.78;;;6.46;70.80
43115;BME280;28727;50.068;14.452;2023-02-12T01:42:32;100988.56;;;6.51;70.72
43115;BME280;28727;50.068;14.452;2023-02-12T01:47:44;100993.50;;;6.55;70.54
43115;BME280;28727;50.068;14.452;2023-02-12T01:50:18;100985.63;;;6.55;70.90
43115;BME280;28727;50.068;14.452;2023-02-12T01:52:55;100986.38;;;6.57;71.04
43115;BME280;28727;50.068;14.452;2023-02-12T01:55:31;101000.25;;;6.60;71.07
43115;BME280;28727;50.068;14.452;2023-02-12T01:58:03;100993.09;;;6.62;70.62
43115;BME280;28727;50.068;14.452;2023-02-12T02:00:35;100993.00;;;6.63;70.72
43115;BME280;28727;50.068;14.452;2023-02-12T02:03:07;100991.41;;;6.61;70.80
43115;BME280;28727;50.068;14.452;2023-02-12T02:05:52;100997.72;;;6.58;70.84
43115;BME280;28727;50.068;14.452;2023-02-12T02:08:26;101004.84;;;6.56;70.30
43115;BME280;28727;50.068;14.452;2023-02-12T02:10:58;101006.94;;;6.51;71.06
43115;BME280;28727;50.068;14.452;2023-02-12T02:13:30;101004.22;;;6.52;70.74
43115;BME280;28727;50.068;14.452;2023-02-12T02:16:25;101001.59;;;6.52;71.02
43115;BME280;28727;50.068;14.452;2023-02-12T02:19:33;101006.63;;;6.55;71.20
43115;BME280;28727;50.068;14.452;2023-02-12T02:27:54;101009.47;;;6.52;70.86
43115;BME280;28727;50.068;14.452;2023-02-12T02:33:21;101007.56;;;6.54;70.55
43115;BME280;28727;50.068;14.452;2023-02-12T02:44:22;101013.78;;;6.53;70.88
43115;BME280;28727;50.068;14.452;2023-02-12T02:46:57;101005.69;;;6.56;70.46
43115;BME280;28727;50.068;14.452;2023-02-12T02:50:01;101001.28;;;6.57;70.75
43115;BME280;28727;50.068;14.452;2023-02-12T02:52:55;101000.44;;;6.56;70.78
43115;BME280;28727;50.068;14.452;2023-02-12T02:55:36;101014.41;;;6.57;70.71
43115;BME280;28727;50.068;14.452;2023-02-12T02:58:38;101016.94;;;6.58;70.73
43115;BME280;28727;50.068;14.452;2023-02-12T03:01:17;101016.81;;;6.60;70.56
43115;BME280;28727;50.068;14.452;2023-02-12T03:04:11;101015.44;;;6.54;70.83
43115;BME280;28727;50.068;14.452;2023-02-12T03:06:51;101026.78;;;6.55;70.58
43115;BME280;28727;50.068;14.452;2023-02-12T03:09:34;101029.31;;;6.56;70.63
43115;BME280;28727;50.068;14.452;2023-02-12T03:12:18;101023.72;;;6.48;70.80
43115;BME280;28727;50.068;14.452;2023-02-12T03:14:56;101037.69;;;6.49;70.56
43115;BME280;28727;50.068;14.452;2023-02-12T03:17:36;101035.06;;;6.49;71.09
43115;BME280;28727;50.068;14.452;2023-02-12T03:22:50;101044.31;;;6.54;71.05
43115;BME280;28727;50.068;14.452;2023-02-12T03:25:34;101046.09;;;6.54;71.04
43115;BME280;28727;50.068;14.452;2023-02-12T03:28:28;101039.06;;;6.54;71.30
43115;BME280;28727;50.068;14.452;2023-02-12T03:36:49;101042.53;;;6.55;70.62
43115;BME280;28727;50.068;14.452;2023-02-12T03:39:44;101047.78;;;6.55;71.36
43115;BME280;28727;50.068;14.452;2023-02-12T03:42:42;101050.31;;;6.56;71.24
43115;BME280;28727;50.068;14.452;2023-02-12T03:48:15;101058.41;;;6.53;70.92
43115;BME280;28727;50.068;14.452;2023-02-12T03:50:55;101066.38;;;6.52;71.55
43115;BME280;28727;50.068;14.452;2023-02-12T03:53:29;101063.75;;;6.52;71.20
43115;BME280;28727;50.068;14.452;2023-02-12T03:56:07;101067.41;;;6.49;71.32
43115;BME280;28727;50.068;14.452;2023-02-12T03:58:41;101063.41;;;6.44;70.96
43115;BME280;28727;50.068;14.452;2023-02-12T04:01:14;101066.13;;;6.42;71.23
43115;BME280;28727;50.068;14.452;2023-02-12T04:03:47;101067.72;;;6.45;71.60
43115;BME280;28727;50.068;14.452;2023-02-12T04:06:21;101065.94;;;6.45;72.07
43115;BME280;28727;50.068;14.452;2023-02-12T04:08:56;101066.88;;;6.44;71.52
43115;BME280;28727;50.068;14.452;2023-02-12T04:11:40;101070.56;;;6.42;71.70
43115;BME280;28727;50.068;14.452;2023-02-12T04:20:14;101087.13;;;6.42;72.19
43115;BME280;28727;50.068;14.452;2023-02-12T04:31:55;101096.16;;;6.38;72.59
43115;BME280;28727;50.068;14.452;2023-02-12T04:34:32;101103.09;;;6.39;73.03
43115;BME280;28727;50.068;14.452;2023-02-12T04:37:11;101104.69;;;6.42;73.37
43115;BME280;28727;50.068;14.452;2023-02-12T04:39:48;101115.91;;;6.44;73.66
43115;BME280;28727;50.068;14.452;2023-02-12T04:42:20;101117.59;;;6.45;73.28
43115;BME280;28727;50.068;14.452;2023-02-12T04:44:52;101112.44;;;6.43;73.70
43115;BME280;28727;50.068;14.452;2023-02-12T04:47:24;101122.00;;;6.44;73.97
43115;BME280;28727;50.068;14.452;2023-02-12T04:49:56;101115.06;;;6.43;74.03
43115;BME280;28727;50.068;14.452;2023-02-12T04:52:28;101110.66;;;6.44;74.12
43115;BME280;28727;50.068;14.452;2023-02-12T04:55:00;101108.97;;;6.43;74.42
43115;BME280;28727;50.068;14.452;2023-02-12T04:57:31;101108.88;;;6.44;74.77
43115;BME280;28727;50.068;14.452;2023-02-12T05:00:04;101116.75;;;6.44;74.54
43115;BME280;28727;50.068;14.452;2023-02-12T05:02:38;101125.47;;;6.45;74.57
43115;BME280;28727;50.068;14.452;2023-02-12T05:05:10;101123.16;;;6.40;74.95
43115;BME280;28727;50.068;14.452;2023-02-12T05:07:45;101117.69;;;6.43;75.42
43115;BME280;28727;50.068;14.452;2023-02-12T05:10:16;101114.13;;;6.44;75.58
43115;BME280;28727;50.068;14.452;2023-02-12T05:12:52;101121.69;;;6.49;75.57
43115;BME280;28727;50.068;14.452;2023-02-12T05:15:24;101121.59;;;6.50;75.21
43115;BME280;28727;50.068;14.452;2023-02-12T05:17:59;101124.22;;;6.50;75.07
43115;BME280;28727;50.068;14.452;2023-02-12T05:20:31;101126.09;;;6.48;75.34
43115;BME280;28727;50.068;14.452;2023-02-12T05:23:02;101129.03;;;6.44;74.95
43115;BME280;28727;50.068;14.452;2023-02-12T05:25:34;101130.81;;;6.43;75.31
43115;BME280;28727;50.068;14.452;2023-02-12T05:28:06;101135.44;;;6.40;75.62
43115;BME280;28727;50.068;14.452;2023-02-12T05:30:38;101138.06;;;6.40;76.01
43115;BME280;28727;50.068;14.452;2023-02-12T05:33:10;101144.06;;;6.42;75.40
43115;BME280;28727;50.068;14.452;2023-02-12T05:35:41;101137.97;;;6.41;75.80
43115;BME280;28727;50.068;14.452;2023-02-12T05:38:13;101152.88;;;6.41;75.30
43115;BME280;28727;50.068;14.452;2023-02-12T05:40:45;101154.66;;;6.40;76.00
43115;BME280;28727;50.068;14.452;2023-02-12T05:43:16;101157.06;;;6.43;76.00
43115;BME280;28727;50.068;14.452;2023-02-12T05:45:48;101159.41;;;6.48;75.96
43115;BME280;28727;50.068;14.452;2023-02-12T05:48:23;101154.03;;;6.49;75.53
43115;BME280;28727;50.068;14.452;2023-02-12T05:51:00;101154.97;;;6.48;75.73
43115;BME280;28727;50.068;14.452;2023-02-12T05:53:32;101168.84;;;6.50;76.05
43115;BME280;28727;50.068;14.452;2023-02-12T05:56:44;101165.28;;;6.51;75.59
43115;BME280;28727;50.068;14.452;2023-02-12T05:59:18;101168.00;;;6.50;75.44
43115;BME280;28727;50.068;14.452;2023-02-12T06:01:51;101168.00;;;6.50;75.69
43115;BME280;28727;50.068;14.452;2023-02-12T06:04:27;101160.34;;;6.47;75.39
43115;BME280;28727;50.068;14.452;2023-02-12T06:06:59;101173.56;;;6.45;75.75
43115;BME280;28727;50.068;14.452;2023-02-12T06:09:31;101179.75;;;6.44;75.34
43115;BME280;28727;50.068;14.452;2023-02-12T06:12:03;101183.44;;;6.42;75.36
43115;BME280;28727;50.068;14.452;2023-02-12T06:14:35;101180.97;;;6.39;75.19
43115;BME280;28727;50.068;14.452;2023-02-12T06:17:07;101189.78;;;6.38;75.62
43115;BME280;28727;50.068;14.452;2023-02-12T06:19:38;101198.59;;;6.37;75.91
43115;BME280;28727;50.068;14.452;2023-02-12T06:22:13;101185.38;;;6.38;75.70
43115;BME280;28727;50.068;14.452;2023-02-12T06:24:44;101192.22;;;6.41;75.52
43115;BME280;28727;50.068;14.452;2023-02-12T06:27:16;101201.88;;;6.40;75.44
43115;BME280;28727;50.068;14.452;2023-02-12T06:29:48;101190.53;;;6.40;75.99
43115;BME280;28727;50.068;14.452;2023-02-12T06:32:19;101203.66;;;6.40;75.71
43115;BME280;28727;50.068;14.452;2023-02-12T06:34:51;101206.59;;;6.35;75.25
43115;BME280;28727;50.068;14.452;2023-02-12T06:37:23;101210.31;;;6.31;75.22
43115;BME280;28727;50.068;14.452;2023-02-12T06:39:55;101217.47;;;6.29;75.28
43115;BME280;28727;50.068;14.452;2023-02-12T06:42:26;101215.69;;;6.30;75.56
43115;BME280;28727;50.068;14.452;2023-02-12T06:44:58;101217.47;;;6.29;75.01
43115;BME280;28727;50.068;14.452;2023-02-12T06:47:30;101222.81;;;6.28;75.03
43115;BME280;28727;50.068;14.452;2023-02-12T06:50:02;101222.03;;;6.26;74.98
43115;BME280;28727;50.068;14.452;2023-02-12T06:52:33;101220.25;;;6.26;74.63
43115;BME280;28727;50.068;14.452;2023-02-12T06:55:06;101220.25;;;6.26;74.67
43115;BME280;28727;50.068;14.452;2023-02-12T06:57:37;101220.72;;;6.33;74.55
43115;BME280;28727;50.068;14.452;2023-02-12T07:00:10;101219.41;;;6.40;74.32
43115;BME280;28727;50.068;14.452;2023-02-12T07:02:42;101226.59;;;6.50;74.01
43115;BME280;28727;50.068;14.452;2023-02-12T07:05:14;101229.00;;;6.68;73.11
43115;BME280;28727;50.068;14.452;2023-02-12T07:07:45;101227.84;;;6.86;72.37
43115;BME280;28727;50.068;14.452;2023-02-12T07:10:18;101236.03;;;7.86;71.22
43115;BME280;28727;50.068;14.452;2023-02-12T07:12:49;101229.16;;;9.30;68.03
43115;BME280;28727;50.068;14.452;2023-02-12T07:15:21;101238.53;;;10.70;64.50
43115;BME280;28727;50.068;14.452;2023-02-12T07:17:53;101248.38;;;11.74;60.45
43115;BME280;28727;50.068;14.452;2023-02-12T07:20:25;101258.06;;;12.46;56.81
43115;BME280;28727;50.068;14.452;2023-02-12T07:22:56;101253.53;;;12.67;55.27
43115;BME280;28727;50.068;14.452;2023-02-12T07:25:28;101265.25;;;12.64;54.92
43115;BME280;28727;50.068;14.452;2023-02-12T07:28:00;101261.38;;;12.38;54.09
43115;BME280;28727;50.068;14.452;2023-02-12T07:30:34;101260.72;;;12.46;54.24
43115;BME280;28727;50.068;14.452;2023-02-12T07:33:06;101265.63;;;12.50;53.64
43115;BME280;28727;50.068;14.452;2023-02-12T07:35:38;101265.91;;;12.17;53.99
43115;BME280;28727;50.068;14.452;2023-02-12T07:38:10;101268.00;;;12.13;54.20
43115;BME280;28727;50.068;14.452;2023-02-12T07:40:42;101260.22;;;13.21;53.06
43115;BME280;28727;50.068;14.452;2023-02-12T07:43:14;101267.84;;;13.04;52.37
43115;BME280;28727;50.068;14.452;2023-02-12T07:45:45;101265.25;;;13.33;51.81
43115;BME280;28727;50.068;14.452;2023-02-12T07:48:17;101270.84;;;13.30;50.97
43115;BME280;28727;50.068;14.452;2023-02-12T07:50:49;101271.91;;;12.89;51.63
43115;BME280;28727;50.068;14.452;2023-02-12T07:53:20;101274.53;;;12.49;52.33
43115;BME280;28727;50.068;14.452;2023-02-12T07:55:52;101280.63;;;12.10;53.11
43115;BME280;28727;50.068;14.452;2023-02-12T07:58:25;101270.53;;;11.62;53.88
43115;BME280;28727;50.068;14.452;2023-02-12T08:00:56;101282.00;;;11.31;54.83
43115;BME280;28727;50.068;14.452;2023-02-12T08:03:28;101291.34;;;11.03;55.40
43115;BME280;28727;50.068;14.452;2023-02-12T08:06:06;101286.22;;;10.79;55.91
43115;BME280;28727;50.068;14.452;2023-02-12T08:08:37;101295.50;;;10.51;56.76
43115;BME280;28727;50.068;14.452;2023-02-12T08:11:10;101289.81;;;10.11;57.72
43115;BME280;28727;50.068;14.452;2023-02-12T08:13:43;101292.94;;;9.70;58.70
43115;BME280;28727;50.068;14.452;2023-02-12T08:16:17;101293.09;;;9.45;60.18
43115;BME280;28727;50.068;14.452;2023-02-12T08:18:50;101301.91;;;9.33;60.38
43115;BME280;28727;50.068;14.452;2023-02-12T08:21:24;101299.47;;;9.19;60.46
43115;BME280;28727;50.068;14.452;2023-02-12T08:23:57;101309.91;;;9.08;61.47
43115;BME280;28727;50.068;14.452;2023-02-12T08:26:31;101306.38;;;8.96;61.64
43115;BME280;28727;50.068;14.452;2023-02-12T08:29:15;101310.00;;;8.82;62.99
43115;BME280;28727;50.068;14.452;2023-02-12T08:31:49;101314.63;;;8.79;62.10
43115;BME280;28727;50.068;14.452;2023-02-12T08:34:24;101316.25;;;8.69;63.10
43115;BME280;28727;50.068;14.452;2023-02-12T08:36:56;101308.25;;;8.57;63.34
43115;BME280;28727;50.068;14.452;2023-02-12T08:39:28;101307.94;;;8.49;63.87
43115;BME280;28727;50.068;14.452;2023-02-12T08:42:00;101319.88;;;8.42;64.17
43115;BME280;28727;50.068;14.452;2023-02-12T08:44:32;101318.81;;;8.45;64.54
43115;BME280;28727;50.068;14.452;2023-02-12T08:47:04;101319.75;;;8.44;64.51
43115;BME280;28727;50.068;14.452;2023-02-12T08:49:37;101322.38;;;8.44;64.68
43115;BME280;28727;50.068;14.452;2023-02-12T08:52:10;101318.81;;;8.45;64.29
43115;BME280;28727;50.068;14.452;2023-02-12T08:54:41;101322.38;;;8.44;65.04
43115;BME280;28727;50.068;14.452;2023-02-12T08:57:13;101326.19;;;8.40;65.17
43115;BME280;28727;50.068;14.452;2023-02-12T08:59:47;101328.81;;;8.40;65.09
43115;BME280;28727;50.068;14.452;2023-02-12T09:02:22;101327.97;;;8.39;64.15
43115;BME280;28727;50.068;14.452;2023-02-12T09:04:54;101328.03;;;8.25;65.07
43115;BME280;28727;50.068;14.452;2023-02-12T09:07:25;101330.28;;;8.18;65.36
43115;BME280;28727;50.068;14.452;2023-02-12T09:09:57;101330.47;;;8.15;65.36
43115;BME280;28727;50.068;14.452;2023-02-12T09:12:29;101338.03;;;8.20;65.75
43115;BME280;28727;50.068;14.452;2023-02-12T09:15:04;101338.56;;;8.25;65.53
43115;BME280;28727;50.068;14.452;2023-02-12T09:17:37;101346.38;;;8.27;65.27
43115;BME280;28727;50.068;14.452;2023-02-12T09:20:11;101347.72;;;8.19;65.79
43115;BME280;28727;50.068;14.452;2023-02-12T09:22:43;101346.59;;;8.11;66.42
43115;BME280;28727;50.068;14.452;2023-02-12T09:25:15;101351.31;;;8.06;66.74
43115;BME280;28727;50.068;14.452;2023-02-12T09:27:47;101351.31;;;8.06;66.62
43115;BME280;28727;50.068;14.452;2023-02-12T09:30:29;101354.47;;;8.11;66.78
43115;BME280;28727;50.068;14.452;2023-02-12T09:33:00;101357.22;;;8.09;66.32
43115;BME280;28727;50.068;14.452;2023-02-12T09:35:36;101361.22;;;8.15;66.78
43115;BME280;28727;50.068;14.452;2023-02-12T09:38:09;101364.19;;;8.23;66.40
43115;BME280;28727;50.068;14.452;2023-02-12T09:44:38;101368.00;;;8.32;66.21
43115;BME280;28727;50.068;14.452;2023-02-12T09:47:33;101370.44;;;8.35;66.89
43115;BME280;28727;50.068;14.452;2023-02-12T09:50:23;101372.75;;;8.39;67.13
43115;BME280;28727;50.068;14.452;2023-02-12T09:53:01;101378.75;;;8.41;67.02
43115;BME280;28727;50.068;14.452;2023-02-12T09:55:33;101379.69;;;8.40;66.34
43115;BME280;28727;50.068;14.452;2023-02-12T10:00:56;101379.28;;;8.46;66.05
43115;BME280;28727;50.068;14.452;2023-02-12T10:03:30;101381.81;;;8.48;66.07
43115;BME280;28727;50.068;14.452;2023-02-12T10:06:04;101388.75;;;8.49;65.89
43115;BME280;28727;50.068;14.452;2023-02-12T10:20:51;101386.94;;;8.37;66.23
43115;BME280;28727;50.068;14.452;2023-02-12T10:26:23;101386.53;;;8.43;65.69
43115;BME280;28727;50.068;14.452;2023-02-12T10:29:17;101381.81;;;8.48;65.70
43115;BME280;28727;50.068;14.452;2023-02-12T10:31:54;101389.50;;;8.51;65.83
43115;BME280;28727;50.068;14.452;2023-02-12T10:34:35;101384.84;;;8.54;65.50
43115;BME280;28727;50.068;14.452;2023-02-12T10:40:42;101382.44;;;8.64;65.42
43115;BME280;28727;50.068;14.452;2023-02-12T10:43:14;101383.59;;;8.60;65.06
43115;BME280;28727;50.068;14.452;2023-02-12T10:45:46;101384.56;;;8.59;64.96
43115;BME280;28727;50.068;14.452;2023-02-12T10:48:26;101374.88;;;8.59;65.48
43115;BME280;28727;50.068;14.452;2023-02-12T10:53:43;101373.25;;;8.70;65.46
43115;BME280;28727;50.068;14.452;2023-02-12T10:56:19;101374.31;;;8.80;65.28
43115;BME280;28727;50.068;14.452;2023-02-12T10:58:58;101368.94;;;8.81;65.10
43115;BME280;28727;50.068;14.452;2023-02-12T11:01:36;101376.31;;;8.89;64.43
43115;BME280;28727;50.068;14.452;2023-02-12T11:04:29;101364.66;;;9.04;65.62
43115;BME280;28727;50.068;14.452;2023-02-12T11:07:05;101367.53;;;9.25;65.03
43115;BME280;28727;50.068;14.452;2023-02-12T11:09:48;101368.13;;;9.41;64.13
43115;BME280;28727;50.068;14.452;2023-02-12T11:12:39;101361.34;;;9.50;63.34
43115;BME280;28727;50.068;14.452;2023-02-12T11:15:22;101357.00;;;9.49;63.04
43115;BME280;28727;50.068;14.452;2023-02-12T11:17:58;101364.00;;;9.37;62.99
43115;BME280;28727;50.068;14.452;2023-02-12T11:20:49;101370.56;;;9.31;63.61
43115;BME280;28727;50.068;14.452;2023-02-12T11:23:27;101356.50;;;9.43;63.30
43115;BME280;28727;50.068;14.452;2023-02-12T11:29:20;101359.47;;;9.86;63.53
43115;BME280;28727;50.068;14.452;2023-02-12T11:32:14;101360.16;;;10.12;61.96
43115;BME280;28727;50.068;14.452;2023-02-12T11:35:24;101360.09;;;10.36;61.69
43115;BME280;28727;50.068;14.452;2023-02-12T11:38:02;101358.19;;;10.49;60.70
43115;BME280;28727;50.068;14.452;2023-02-12T11:40:34;101347.88;;;10.57;59.83
43115;BME280;28727;50.068;14.452;2023-02-12T11:43:07;101344.25;;;10.70;59.71
43115;BME280;28727;50.068;14.452;2023-02-12T11:45:47;101348.09;;;10.88;59.14
43115;BME280;28727;50.068;14.452;2023-02-12T11:48:37;101352.78;;;11.06;59.08
43115;BME280;28727;50.068;14.452;2023-02-12T11:51:20;101351.03;;;11.28;58.27
43115;BME280;28727;50.068;14.452;2023-02-12T11:53:59;101346.91;;;11.46;57.60
43115;BME280;28727;50.068;14.452;2023-02-12T11:56:46;101348.53;;;11.58;56.81
43115;BME280;28727;50.068;14.452;2023-02-12T11:59:36;101340.47;;;11.60;56.67
43115;BME280;28727;50.068;14.452;2023-02-12T12:04:51;101345.13;;;11.67;56.87
43115;BME280;28727;50.068;14.452;2023-02-12T12:07:31;101345.84;;;11.69;56.07
43115;BME280;28727;50.068;14.452;2023-02-12T12:10:37;101345.00;;;11.69;55.43
43115;BME280;28727;50.068;14.452;2023-02-12T12:13:15;101343.56;;;11.65;55.57
43115;BME280;28727;50.068;14.452;2023-02-12T12:15:51;101348.16;;;11.63;55.58
43115;BME280;28727;50.068;14.452;2023-02-12T12:19:15;101341.38;;;11.70;55.14
43115;BME280;28727;50.068;14.452;2023-02-12T12:22:26;101346.81;;;11.68;54.82
43115;BME280;28727;50.068;14.452;2023-02-12T12:25:25;101336.59;;;11.64;54.60
43115;BME280;28727;50.068;14.452;2023-02-12T12:31:33;101333.03;;;11.54;54.90
43115;BME280;28727;50.068;14.452;2023-02-12T12:34:21;101332.34;;;11.40;54.81
43115;BME280;28727;50.068;14.452;2023-02-12T12:57:36;101322.88;;;11.27;55.40
43115;BME280;28727;50.068;14.452;2023-02-12T13:06:07;101324.31;;;10.77;56.06
43115;BME280;28727;50.068;14.452;2023-02-12T13:14:47;101325.03;;;10.45;56.70
43115;BME280;28727;50.068;14.452;2023-02-12T13:17:30;101319.00;;;10.32;56.72
43115;BME280;28727;50.068;14.452;2023-02-12T13:23:37;101323.69;;;10.17;57.30
43115;BME280;28727;50.068;14.452;2023-02-12T13:26:24;101328.69;;;10.09;57.92
43115;BME280;28727;50.068;14.452;2023-02-12T13:31:46;101323.84;;;10.03;57.85
43115;BME280;28727;50.068;14.452;2023-02-12T13:34:26;101320.72;;;9.98;57.64
43115;BME280;28727;50.068;14.452;2023-02-12T13:37:03;101325.53;;;9.93;57.84
43115;BME280;28727;50.068;14.452;2023-02-12T13:39:41;101326.59;;;9.91;58.40
43115;BME280;28727;50.068;14.452;2023-02-12T13:42:34;101325.88;;;9.89;58.18
43115;BME280;28727;50.068;14.452;2023-02-12T13:45:20;101320.59;;;9.89;58.25
43115;BME280;28727;50.068;14.452;2023-02-12T13:48:39;101315.06;;;9.92;58.31
43115;BME280;28727;50.068;14.452;2023-02-12T13:56:59;101328.25;;;9.80;58.47
43115;BME280;28727;50.068;14.452;2023-02-12T14:04:53;101318.06;;;9.87;58.46
43115;BME280;28727;50.068;14.452;2023-02-12T14:07:47;101316.28;;;9.88;58.41
43115;BME280;28727;50.068;14.452;2023-02-12T14:13:21;101321.56;;;9.88;58.23
43115;BME280;28727;50.068;14.452;2023-02-12T14:15:55;101324.75;;;9.80;58.61
43115;BME280;28727;50.068;14.452;2023-02-12T14:18:35;101322.69;;;9.72;58.40
43115;BME280;28727;50.068;14.452;2023-02-12T14:23:43;101318.50;;;9.70;58.40
43115;BME280;28727;50.068;14.452;2023-02-12T14:26:22;101321.63;;;9.75;58.61
43115;BME280;28727;50.068;14.452;2023-02-12T14:29:01;101323.31;;;9.76;58.24
43115;BME280;28727;50.068;14.452;2023-02-12T14:31:37;101318.50;;;9.70;57.95
43115;BME280;28727;50.068;14.452;2023-02-12T14:37:14;101320.41;;;9.68;58.66
43115;BME280;28727;50.068;14.452;2023-02-12T14:39:46;101319.34;;;9.70;58.18
43115;BME280;28727;50.068;14.452;2023-02-12T14:44:58;101323.88;;;9.68;58.09
43115;BME280;28727;50.068;14.452;2023-02-12T14:50:11;101329.16;;;9.68;57.95
43115;BME280;28727;50.068;14.452;2023-02-12T14:52:50;101322.66;;;9.61;58.22
43115;BME280;28727;50.068;14.452;2023-02-12T14:55:31;101332.16;;;9.64;57.79
43115;BME280;28727;50.068;14.452;2023-02-12T14:58:20;101326.13;;;9.62;57.80
43115;BME280;28727;50.068;14.452;2023-02-12T15:00:55;101332.03;;;9.65;57.81
43115;BME280;28727;50.068;14.452;2023-02-12T15:03:37;101324.13;;;9.65;57.89
43115;BME280;28727;50.068;14.452;2023-02-12T15:06:17;101321.44;;;9.54;57.83
43115;BME280;28727;50.068;14.452;2023-02-12T15:11:42;101320.66;;;9.41;58.26
43115;BME280;28727;50.068;14.452;2023-02-12T15:14:22;101327.72;;;9.40;58.29
43115;BME280;28727;50.068;14.452;2023-02-12T15:17:19;101334.28;;;9.35;58.19
43115;BME280;28727;50.068;14.452;2023-02-12T15:20:07;101331.16;;;9.30;58.37
43115;BME280;28727;50.068;14.452;2023-02-12T15:22:47;101334.50;;;9.32;58.26
43115;BME280;28727;50.068;14.452;2023-02-12T15:25:23;101341.47;;;9.33;58.10
43115;BME280;28727;50.068;14.452;2023-02-12T15:27:58;101338.72;;;9.34;58.56
43115;BME280;28727;50.068;14.452;2023-02-12T15:30:33;101343.25;;;9.32;59.02
43115;BME280;28727;50.068;14.452;2023-02-12T15:33:20;101348.13;;;9.26;58.99
43115;BME280;28727;50.068;14.452;2023-02-12T15:36:00;101344.50;;;9.16;59.94
43115;BME280;28727;50.068;14.452;2023-02-12T15:38:35;101344.59;;;9.14;60.17
43115;BME280;28727;50.068;14.452;2023-02-12T15:41:08;101343.44;;;9.18;60.42
43115;BME280;28727;50.068;14.452;2023-02-12T15:43:45;101345.94;;;9.20;60.15
43115;BME280;28727;50.068;14.452;2023-02-12T15:46:17;101344.59;;;9.14;60.38
43115;BME280;28727;50.068;14.452;2023-02-12T15:48:54;101338.59;;;9.12;60.55
43115;BME280;28727;50.068;14.452;2023-02-12T15:51:34;101343.88;;;9.12;60.73
43115;BME280;28727;50.068;14.452;2023-02-12T15:54:14;101341.25;;;9.12;60.21
43115;BME280;28727;50.068;14.452;2023-02-12T15:56:50;101345.78;;;9.10;60.50
43115;BME280;28727;50.068;14.452;2023-02-12T15:59:26;101343.38;;;9.07;60.41
43115;BME280;28727;50.068;14.452;2023-02-12T16:02:01;101336.09;;;8.98;60.86
43115;BME280;28727;50.068;14.452;2023-02-12T16:04:37;101331.06;;;8.95;61.27
43115;BME280;28727;50.068;14.452;2023-02-12T16:07:13;101334.75;;;8.92;61.22